sensor_id;sensor_type;location;lat;lon;timestamp;temperature;humidity
73576;DHT22;61859;49.204;8.140;2022-12-29T00:02:10;10.80;82.20
73576;DHT22;61859;49.204;8.140;2022-12-29T00:04:36;10.60;82.60
73576;DHT22;61859;49.204;8.140;2022-12-29T00:07:02;10.40;83.20
73576;DHT22;61859;49.204;8.140;2022-12-29T00:09:30;10.20;83.80
73576;DHT22;61859;49.204;8.140;2022-12-29T00:11:56;10.20;84.00
73576;DHT22;61859;49.204;8.140;2022-12-29T00:14:21;10.10;84.60
73576;DHT22;61859;49.204;8.140;2022-12-29T00:17:06;10.00;85.20
73576;DHT22;61859;49.204;8.140;2022-12-29T00:19:31;10.20;84.90
73576;DHT22;61859;49.204;8.140;2022-12-29T00:22:16;10.20;84.80
73576;DHT22;61859;49.204;8.140;2022-12-29T00:25:00;10.30;84.80
73576;DHT22;61859;49.204;8.140;2022-12-29T00:27:44;10.30;84.60
73576;DHT22;61859;49.204;8.140;2022-12-29T00:30:29;10.50;84.80
73576;DHT22;61859;49.204;8.140;2022-12-29T00:33:21;10.90;83.90
73576;DHT22;61859;49.204;8.140;2022-12-29T00:36:13;11.30;83.00
73576;DHT22;61859;49.204;8.140;2022-12-29T00:38:43;12.00;81.00
73576;DHT22;61859;49.204;8.140;2022-12-29T00:41:29;12.40;79.90
73576;DHT22;61859;49.204;8.140;2022-12-29T00:44:13;12.50;79.30
73576;DHT22;61859;49.204;8.140;2022-12-29T00:46:40;12.50;79.40
73576;DHT22;61859;49.204;8.140;2022-12-29T00:49:09;12.60;79.90
73576;DHT22;61859;49.204;8.140;2022-12-29T00:51:54;12.60;80.70
73576;DHT22;61859;49.204;8.140;2022-12-29T00:54:20;12.60;81.40
73576;DHT22;61859;49.204;8.140;2022-12-29T00:56:50;12.60;81.90
73576;DHT22;61859;49.204;8.140;2022-12-29T00:59:16;12.50;82.00
73576;DHT22;61859;49.204;8.140;2022-12-29T01:01:43;12.50;82.50
73576;DHT22;61859;49.204;8.140;2022-12-29T01:04:09;12.50;82.60
73576;DHT22;61859;49.204;8.140;2022-12-29T01:06:38;12.50;83.00
73576;DHT22;61859;49.204;8.140;2022-12-29T01:09:05;12.50;83.20
73576;DHT22;61859;49.204;8.140;2022-12-29T01:11:50;12.40;83.30
73576;DHT22;61859;49.204;8.140;2022-12-29T01:14:16;12.40;83.60
73576;DHT22;61859;49.204;8.140;2022-12-29T01:16:41;12.40;83.80
73576;DHT22;61859;49.204;8.140;2022-12-29T01:19:07;12.30;83.80
73576;DHT22;61859;49.204;8.140;2022-12-29T01:21:33;12.40;84.00
73576;DHT22;61859;49.204;8.140;2022-12-29T01:23:58;12.40;84.00
73576;DHT22;61859;49.204;8.140;2022-12-29T01:26:24;12.40;84.10
73576;DHT22;61859;49.204;8.140;2022-12-29T01:28:50;12.40;84.00
73576;DHT22;61859;49.204;8.140;2022-12-29T01:31:15;12.40;84.00
73576;DHT22;61859;49.204;8.140;2022-12-29T01:33:42;12.40;84.10
73576;DHT22;61859;49.204;8.140;2022-12-29T01:36:10;12.40;84.50
73576;DHT22;61859;49.204;8.140;2022-12-29T01:38:37;12.30;86.10
73576;DHT22;61859;49.204;8.140;2022-12-29T01:41:03;11.90;87.70
73576;DHT22;61859;49.204;8.140;2022-12-29T01:43:48;11.70;88.80
73576;DHT22;61859;49.204;8.140;2022-12-29T01:46:29;11.50;89.50
73576;DHT22;61859;49.204;8.140;2022-12-29T01:49:19;11.30;89.70
73576;DHT22;61859;49.204;8.140;2022-12-29T01:51:55;11.20;89.80
73576;DHT22;61859;49.204;8.140;2022-12-29T01:54:30;11.40;90.00
73576;DHT22;61859;49.204;8.140;2022-12-29T01:56:59;11.30;89.90
73576;DHT22;61859;49.204;8.140;2022-12-29T01:59:30;11.40;89.30
73576;DHT22;61859;49.204;8.140;2022-12-29T02:01:58;11.40;89.00
73576;DHT22;61859;49.204;8.140;2022-12-29T02:04:24;11.50;88.80
73576;DHT22;61859;49.204;8.140;2022-12-29T02:06:55;11.60;88.60
73576;DHT22;61859;49.204;8.140;2022-12-29T02:09:23;11.50;88.40
73576;DHT22;61859;49.204;8.140;2022-12-29T02:11:49;11.60;88.20
73576;DHT22;61859;49.204;8.140;2022-12-29T02:14:14;11.70;87.90
73576;DHT22;61859;49.204;8.140;2022-12-29T02:16:57;11.60;89.10
73576;DHT22;61859;49.204;8.140;2022-12-29T02:38:51;11.30;89.50
73576;DHT22;61859;49.204;8.140;2022-12-29T02:41:32;11.30;89.20
73576;DHT22;61859;49.204;8.140;2022-12-29T02:46:47;11.70;88.70
73576;DHT22;61859;49.204;8.140;2022-12-29T02:49:22;11.60;88.60
73576;DHT22;61859;49.204;8.140;2022-12-29T02:52:09;11.60;88.20
73576;DHT22;61859;49.204;8.140;2022-12-29T02:54:36;11.60;88.30
73576;DHT22;61859;49.204;8.140;2022-12-29T03:00:09;11.70;88.40
73576;DHT22;61859;49.204;8.140;2022-12-29T03:02:55;11.50;88.70
73576;DHT22;61859;49.204;8.140;2022-12-29T03:05:57;11.60;88.40
73576;DHT22;61859;49.204;8.140;2022-12-29T03:08:55;11.50;88.80
73576;DHT22;61859;49.204;8.140;2022-12-29T03:11:27;11.40;88.80
73576;DHT22;61859;49.204;8.140;2022-12-29T03:14:31;11.30;89.00
73576;DHT22;61859;49.204;8.140;2022-12-29T03:18:09;11.10;89.40
73576;DHT22;61859;49.204;8.140;2022-12-29T03:20:43;11.00;89.70
73576;DHT22;61859;49.204;8.140;2022-12-29T03:23:12;10.90;89.90
73576;DHT22;61859;49.204;8.140;2022-12-29T03:25:45;10.80;90.20
73576;DHT22;61859;49.204;8.140;2022-12-29T03:28:20;10.80;90.20
73576;DHT22;61859;49.204;8.140;2022-12-29T03:30:47;10.70;90.30
73576;DHT22;61859;49.204;8.140;2022-12-29T03:33:17;10.70;90.50
73576;DHT22;61859;49.204;8.140;2022-12-29T03:35:44;10.60;90.60
73576;DHT22;61859;49.204;8.140;2022-12-29T03:40:58;10.40;90.90
73576;DHT22;61859;49.204;8.140;2022-12-29T03:43:24;10.40;90.80
73576;DHT22;61859;49.204;8.140;2022-12-29T03:45:51;10.30;91.00
73576;DHT22;61859;49.204;8.140;2022-12-29T03:48:16;10.30;90.90
73576;DHT22;61859;49.204;8.140;2022-12-29T03:50:42;10.30;90.50
73576;DHT22;61859;49.204;8.140;2022-12-29T03:53:07;10.40;90.50
73576;DHT22;61859;49.204;8.140;2022-12-29T03:55:33;10.40;90.10
73576;DHT22;61859;49.204;8.140;2022-12-29T03:57:58;10.40;90.10
73576;DHT22;61859;49.204;8.140;2022-12-29T04:00:24;10.40;90.10
73576;DHT22;61859;49.204;8.140;2022-12-29T04:02:50;10.40;89.90
73576;DHT22;61859;49.204;8.140;2022-12-29T04:05:15;10.50;89.00
73576;DHT22;61859;49.204;8.140;2022-12-29T04:07:41;10.60;87.70
73576;DHT22;61859;49.204;8.140;2022-12-29T04:10:06;11.00;86.50
73576;DHT22;61859;49.204;8.140;2022-12-29T04:12:32;11.20;85.40
73576;DHT22;61859;49.204;8.140;2022-12-29T04:14:57;11.40;84.60
73576;DHT22;61859;49.204;8.140;2022-12-29T04:17:23;11.70;84.10
73576;DHT22;61859;49.204;8.140;2022-12-29T04:19:49;11.70;83.80
73576;DHT22;61859;49.204;8.140;2022-12-29T04:22:14;12.00;83.50
73576;DHT22;61859;49.204;8.140;2022-12-29T04:24:40;12.00;83.20
73576;DHT22;61859;49.204;8.140;2022-12-29T04:27:05;12.20;82.60
73576;DHT22;61859;49.204;8.140;2022-12-29T04:29:31;12.20;82.10
73576;DHT22;61859;49.204;8.140;2022-12-29T04:31:56;12.30;82.00
73576;DHT22;61859;49.204;8.140;2022-12-29T04:34:22;12.40;81.50
73576;DHT22;61859;49.204;8.140;2022-12-29T04:36:47;12.60;81.10
73576;DHT22;61859;49.204;8.140;2022-12-29T04:39:13;12.50;81.10
73576;DHT22;61859;49.204;8.140;2022-12-29T04:41:38;12.60;81.00
73576;DHT22;61859;49.204;8.140;2022-12-29T04:44:04;12.60;82.00
73576;DHT22;61859;49.204;8.140;2022-12-29T04:46:29;12.40;83.40
73576;DHT22;61859;49.204;8.140;2022-12-29T04:48:55;12.10;84.90
73576;DHT22;61859;49.204;8.140;2022-12-29T04:51:21;11.80;86.00
73576;DHT22;61859;49.204;8.140;2022-12-29T04:53:46;11.70;86.30
73576;DHT22;61859;49.204;8.140;2022-12-29T04:56:12;11.50;86.90
73576;DHT22;61859;49.204;8.140;2022-12-29T04:58:37;11.40;86.60
73576;DHT22;61859;49.204;8.140;2022-12-29T05:01:03;11.60;86.60
73576;DHT22;61859;49.204;8.140;2022-12-29T05:03:28;11.50;87.50
73576;DHT22;61859;49.204;8.140;2022-12-29T05:05:55;11.40;88.50
73576;DHT22;61859;49.204;8.140;2022-12-29T05:08:21;11.20;88.90
73576;DHT22;61859;49.204;8.140;2022-12-29T05:10:47;11.10;89.30
73576;DHT22;61859;49.204;8.140;2022-12-29T05:13:12;11.00;89.60
73576;DHT22;61859;49.204;8.140;2022-12-29T05:15:38;11.00;89.70
73576;DHT22;61859;49.204;8.140;2022-12-29T05:18:03;11.00;89.60
73576;DHT22;61859;49.204;8.140;2022-12-29T05:20:29;11.00;89.40
73576;DHT22;61859;49.204;8.140;2022-12-29T05:22:55;11.10;89.20
73576;DHT22;61859;49.204;8.140;2022-12-29T05:25:20;11.00;89.00
73576;DHT22;61859;49.204;8.140;2022-12-29T05:27:46;11.00;88.30
73576;DHT22;61859;49.204;8.140;2022-12-29T05:30:12;11.10;88.10
73576;DHT22;61859;49.204;8.140;2022-12-29T05:32:37;11.20;87.60
73576;DHT22;61859;49.204;8.140;2022-12-29T05:35:03;11.20;87.20
73576;DHT22;61859;49.204;8.140;2022-12-29T05:37:29;11.30;87.10
73576;DHT22;61859;49.204;8.140;2022-12-29T05:39:54;11.40;86.80
73576;DHT22;61859;49.204;8.140;2022-12-29T05:42:20;11.60;86.20
73576;DHT22;61859;49.204;8.140;2022-12-29T05:44:45;11.60;86.00
73576;DHT22;61859;49.204;8.140;2022-12-29T05:47:11;11.60;85.60
73576;DHT22;61859;49.204;8.140;2022-12-29T05:49:36;11.80;85.40
73576;DHT22;61859;49.204;8.140;2022-12-29T05:52:02;11.90;85.30
73576;DHT22;61859;49.204;8.140;2022-12-29T05:54:27;11.90;85.30
73576;DHT22;61859;49.204;8.140;2022-12-29T05:56:53;11.90;85.30
73576;DHT22;61859;49.204;8.140;2022-12-29T05:59:18;11.90;85.30
73576;DHT22;61859;49.204;8.140;2022-12-29T06:01:44;11.70;85.10
73576;DHT22;61859;49.204;8.140;2022-12-29T06:04:09;11.80;85.20
73576;DHT22;61859;49.204;8.140;2022-12-29T06:06:35;11.80;85.10
73576;DHT22;61859;49.204;8.140;2022-12-29T06:09:00;11.70;85.30
73576;DHT22;61859;49.204;8.140;2022-12-29T06:11:26;11.50;85.30
73576;DHT22;61859;49.204;8.140;2022-12-29T06:13:51;11.50;85.30
73576;DHT22;61859;49.204;8.140;2022-12-29T06:16:17;11.60;85.20
73576;DHT22;61859;49.204;8.140;2022-12-29T06:18:42;11.50;85.50
73576;DHT22;61859;49.204;8.140;2022-12-29T06:21:08;11.50;85.70
73576;DHT22;61859;49.204;8.140;2022-12-29T06:23:34;11.50;85.70
73576;DHT22;61859;49.204;8.140;2022-12-29T06:25:59;11.40;85.60
73576;DHT22;61859;49.204;8.140;2022-12-29T06:28:24;11.40;85.70
73576;DHT22;61859;49.204;8.140;2022-12-29T06:30:50;11.40;85.40
73576;DHT22;61859;49.204;8.140;2022-12-29T06:33:16;11.40;85.50
73576;DHT22;61859;49.204;8.140;2022-12-29T06:35:42;11.40;85.60
73576;DHT22;61859;49.204;8.140;2022-12-29T06:38:08;11.30;85.70
73576;DHT22;61859;49.204;8.140;2022-12-29T06:40:33;11.30;85.50
73576;DHT22;61859;49.204;8.140;2022-12-29T06:42:59;11.20;85.30
73576;DHT22;61859;49.204;8.140;2022-12-29T06:45:25;11.20;85.40
73576;DHT22;61859;49.204;8.140;2022-12-29T06:47:50;11.30;85.20
73576;DHT22;61859;49.204;8.140;2022-12-29T06:50:16;11.10;85.30
73576;DHT22;61859;49.204;8.140;2022-12-29T06:52:41;11.10;85.50
73576;DHT22;61859;49.204;8.140;2022-12-29T06:55:07;11.10;85.30
73576;DHT22;61859;49.204;8.140;2022-12-29T06:57:33;11.00;85.20
73576;DHT22;61859;49.204;8.140;2022-12-29T06:59:58;11.10;85.40
73576;DHT22;61859;49.204;8.140;2022-12-29T07:02:24;11.10;85.20
73576;DHT22;61859;49.204;8.140;2022-12-29T07:04:53;11.00;85.30
73576;DHT22;61859;49.204;8.140;2022-12-29T07:07:19;11.10;85.30
73576;DHT22;61859;49.204;8.140;2022-12-29T07:09:45;11.00;85.30
73576;DHT22;61859;49.204;8.140;2022-12-29T07:12:11;11.00;85.40
73576;DHT22;61859;49.204;8.140;2022-12-29T07:14:36;11.00;85.80
73576;DHT22;61859;49.204;8.140;2022-12-29T07:17:02;11.00;85.70
73576;DHT22;61859;49.204;8.140;2022-12-29T07:19:30;11.00;85.80
73576;DHT22;61859;49.204;8.140;2022-12-29T07:21:56;10.90;86.00
73576;DHT22;61859;49.204;8.140;2022-12-29T07:24:22;10.90;85.90
73576;DHT22;61859;49.204;8.140;2022-12-29T07:26:47;11.00;85.80
73576;DHT22;61859;49.204;8.140;2022-12-29T07:29:13;11.00;85.60
73576;DHT22;61859;49.204;8.140;2022-12-29T07:31:38;11.00;85.40
73576;DHT22;61859;49.204;8.140;2022-12-29T07:34:04;11.10;84.80
73576;DHT22;61859;49.204;8.140;2022-12-29T07:36:29;11.20;84.60
73576;DHT22;61859;49.204;8.140;2022-12-29T07:38:55;11.30;83.70
73576;DHT22;61859;49.204;8.140;2022-12-29T07:41:20;11.40;83.00
73576;DHT22;61859;49.204;8.140;2022-12-29T07:43:49;11.60;82.90
73576;DHT22;61859;49.204;8.140;2022-12-29T07:46:14;11.70;82.50
73576;DHT22;61859;49.204;8.140;2022-12-29T07:48:40;11.70;82.20
73576;DHT22;61859;49.204;8.140;2022-12-29T07:51:06;11.80;81.70
73576;DHT22;61859;49.204;8.140;2022-12-29T07:53:31;12.00;81.20
73576;DHT22;61859;49.204;8.140;2022-12-29T07:55:57;12.10;80.60
73576;DHT22;61859;49.204;8.140;2022-12-29T07:58:23;12.20;80.30
73576;DHT22;61859;49.204;8.140;2022-12-29T08:00:53;12.30;79.90
73576;DHT22;61859;49.204;8.140;2022-12-29T08:03:19;12.30;79.80
73576;DHT22;61859;49.204;8.140;2022-12-29T08:05:44;12.30;79.80
73576;DHT22;61859;49.204;8.140;2022-12-29T08:08:10;12.40;79.30
73576;DHT22;61859;49.204;8.140;2022-12-29T08:10:35;12.50;79.60
73576;DHT22;61859;49.204;8.140;2022-12-29T08:13:01;12.30;79.40
73576;DHT22;61859;49.204;8.140;2022-12-29T08:15:26;12.50;79.30
73576;DHT22;61859;49.204;8.140;2022-12-29T08:17:52;12.40;79.20
73576;DHT22;61859;49.204;8.140;2022-12-29T08:20:17;12.50;79.30
73576;DHT22;61859;49.204;8.140;2022-12-29T08:22:43;12.60;79.60
73576;DHT22;61859;49.204;8.140;2022-12-29T08:25:08;12.60;78.40
73576;DHT22;61859;49.204;8.140;2022-12-29T08:27:34;12.70;78.00
73576;DHT22;61859;49.204;8.140;2022-12-29T08:30:00;12.80;78.00
73576;DHT22;61859;49.204;8.140;2022-12-29T08:32:26;12.80;78.00
73576;DHT22;61859;49.204;8.140;2022-12-29T08:34:53;12.80;77.70
73576;DHT22;61859;49.204;8.140;2022-12-29T08:37:19;13.00;77.80
73576;DHT22;61859;49.204;8.140;2022-12-29T08:39:45;13.00;77.30
73576;DHT22;61859;49.204;8.140;2022-12-29T08:42:10;13.00;77.80
73576;DHT22;61859;49.204;8.140;2022-12-29T08:44:36;13.00;78.30
73576;DHT22;61859;49.204;8.140;2022-12-29T08:47:01;13.10;78.20
73576;DHT22;61859;49.204;8.140;2022-12-29T08:49:27;13.10;78.00
73576;DHT22;61859;49.204;8.140;2022-12-29T08:51:52;13.10;77.40
73576;DHT22;61859;49.204;8.140;2022-12-29T08:54:18;13.40;76.20
73576;DHT22;61859;49.204;8.140;2022-12-29T08:56:43;13.50;76.00
73576;DHT22;61859;49.204;8.140;2022-12-29T08:59:09;13.60;76.30
73576;DHT22;61859;49.204;8.140;2022-12-29T09:01:34;13.50;76.20
73576;DHT22;61859;49.204;8.140;2022-12-29T09:04:01;13.50;75.90
73576;DHT22;61859;49.204;8.140;2022-12-29T09:06:27;13.60;76.90
73576;DHT22;61859;49.204;8.140;2022-12-29T09:08:54;13.50;78.50
73576;DHT22;61859;49.204;8.140;2022-12-29T09:11:22;13.10;80.50
73576;DHT22;61859;49.204;8.140;2022-12-29T09:13:48;13.00;80.90
73576;DHT22;61859;49.204;8.140;2022-12-29T09:16:15;13.00;81.50
73576;DHT22;61859;49.204;8.140;2022-12-29T09:18:40;12.90;81.90
73576;DHT22;61859;49.204;8.140;2022-12-29T09:21:06;12.90;82.80
73576;DHT22;61859;49.204;8.140;2022-12-29T09:23:33;12.80;82.70
73576;DHT22;61859;49.204;8.140;2022-12-29T09:25:59;12.80;83.30
73576;DHT22;61859;49.204;8.140;2022-12-29T09:28:25;12.70;84.10
73576;DHT22;61859;49.204;8.140;2022-12-29T09:30:52;12.70;86.00
73576;DHT22;61859;49.204;8.140;2022-12-29T09:33:18;12.50;87.10
73576;DHT22;61859;49.204;8.140;2022-12-29T09:35:48;12.30;87.30
73576;DHT22;61859;49.204;8.140;2022-12-29T09:38:15;12.10;87.90
73576;DHT22;61859;49.204;8.140;2022-12-29T09:40:44;12.10;88.70
73576;DHT22;61859;49.204;8.140;2022-12-29T09:46:04;12.10;87.20
73576;DHT22;61859;49.204;8.140;2022-12-29T09:48:40;12.20;87.10
73576;DHT22;61859;49.204;8.140;2022-12-29T09:51:15;12.10;86.50
73576;DHT22;61859;49.204;8.140;2022-12-29T09:53:44;12.30;86.20
73576;DHT22;61859;49.204;8.140;2022-12-29T09:56:16;12.40;85.60
73576;DHT22;61859;49.204;8.140;2022-12-29T10:01:46;12.70;83.80
73576;DHT22;61859;49.204;8.140;2022-12-29T10:04:14;13.30;80.80
73576;DHT22;61859;49.204;8.140;2022-12-29T10:06:56;13.50;79.70
73576;DHT22;61859;49.204;8.140;2022-12-29T10:09:39;13.60;78.60
73576;DHT22;61859;49.204;8.140;2022-12-29T10:15:38;13.20;81.20
73576;DHT22;61859;49.204;8.140;2022-12-29T10:21:00;13.30;79.80
73576;DHT22;61859;49.204;8.140;2022-12-29T10:23:36;13.50;79.20
73576;DHT22;61859;49.204;8.140;2022-12-29T10:26:09;13.50;79.50
73576;DHT22;61859;49.204;8.140;2022-12-29T10:28:47;13.70;79.00
73576;DHT22;61859;49.204;8.140;2022-12-29T10:31:18;13.60;79.70
73576;DHT22;61859;49.204;8.140;2022-12-29T10:33:49;13.20;80.30
73576;DHT22;61859;49.204;8.140;2022-12-29T10:36:19;13.00;81.70
73576;DHT22;61859;49.204;8.140;2022-12-29T10:38:58;13.00;81.10
73576;DHT22;61859;49.204;8.140;2022-12-29T10:41:57;13.30;79.60
73576;DHT22;61859;49.204;8.140;2022-12-29T10:44:28;13.30;79.40
73576;DHT22;61859;49.204;8.140;2022-12-29T10:47:01;13.30;78.90
73576;DHT22;61859;49.204;8.140;2022-12-29T10:49:30;13.20;79.30
73576;DHT22;61859;49.204;8.140;2022-12-29T10:51:59;13.50;78.30
73576;DHT22;61859;49.204;8.140;2022-12-29T10:54:30;14.00;76.10
73576;DHT22;61859;49.204;8.140;2022-12-29T10:57:05;14.70;74.50
73576;DHT22;61859;49.204;8.140;2022-12-29T10:59:33;15.70;69.10
73576;DHT22;61859;49.204;8.140;2022-12-29T11:05:00;17.00;64.50
73576;DHT22;61859;49.204;8.140;2022-12-29T11:07:30;17.50;63.20
73576;DHT22;61859;49.204;8.140;2022-12-29T11:10:16;16.80;63.70
73576;DHT22;61859;49.204;8.140;2022-12-29T11:13:00;15.50;68.60
73576;DHT22;61859;49.204;8.140;2022-12-29T11:15:27;14.50;72.50
73576;DHT22;61859;49.204;8.140;2022-12-29T11:17:57;14.30;73.20
73576;DHT22;61859;49.204;8.140;2022-12-29T11:20:38;14.40;72.40
73576;DHT22;61859;49.204;8.140;2022-12-29T11:23:21;13.90;74.90
73576;DHT22;61859;49.204;8.140;2022-12-29T11:28:30;13.50;78.20
73576;DHT22;61859;49.204;8.140;2022-12-29T11:31:01;13.50;79.20
73576;DHT22;61859;49.204;8.140;2022-12-29T11:33:28;13.50;80.50
73576;DHT22;61859;49.204;8.140;2022-12-29T11:36:16;13.60;80.10
73576;DHT22;61859;49.204;8.140;2022-12-29T11:38:46;13.60;80.00
73576;DHT22;61859;49.204;8.140;2022-12-29T11:41:18;13.70;79.30
73576;DHT22;61859;49.204;8.140;2022-12-29T11:43:45;14.10;78.50
73576;DHT22;61859;49.204;8.140;2022-12-29T11:46:25;14.60;76.10
73576;DHT22;61859;49.204;8.140;2022-12-29T11:48:51;15.50;72.90
73576;DHT22;61859;49.204;8.140;2022-12-29T11:51:33;16.50;68.90
73576;DHT22;61859;49.204;8.140;2022-12-29T11:54:03;16.90;65.30
73576;DHT22;61859;49.204;8.140;2022-12-29T11:56:41;16.40;66.20
73576;DHT22;61859;49.204;8.140;2022-12-29T12:04:44;16.90;63.00
73576;DHT22;61859;49.204;8.140;2022-12-29T12:07:17;17.00;62.30
73576;DHT22;61859;49.204;8.140;2022-12-29T12:09:54;16.20;64.20
73576;DHT22;61859;49.204;8.140;2022-12-29T12:12:33;16.40;63.10
73576;DHT22;61859;49.204;8.140;2022-12-29T12:15:01;16.20;63.20
73576;DHT22;61859;49.204;8.140;2022-12-29T12:17:37;15.90;64.40
73576;DHT22;61859;49.204;8.140;2022-12-29T12:20:19;16.30;63.20
73576;DHT22;61859;49.204;8.140;2022-12-29T12:22:59;16.80;62.10
73576;DHT22;61859;49.204;8.140;2022-12-29T12:25:34;16.30;63.30
73576;DHT22;61859;49.204;8.140;2022-12-29T12:28:09;15.50;65.90
73576;DHT22;61859;49.204;8.140;2022-12-29T12:30:48;14.90;69.20
73576;DHT22;61859;49.204;8.140;2022-12-29T12:36:14;14.10;74.80
73576;DHT22;61859;49.204;8.140;2022-12-29T12:42:14;11.50;87.40
73576;DHT22;61859;49.204;8.140;2022-12-29T12:47:25;10.40;95.00
73576;DHT22;61859;49.204;8.140;2022-12-29T12:52:53;10.40;95.90
73576;DHT22;61859;49.204;8.140;2022-12-29T12:55:52;10.40;96.10
73576;DHT22;61859;49.204;8.140;2022-12-29T12:58:26;10.50;95.30
73576;DHT22;61859;49.204;8.140;2022-12-29T13:07:07;11.90;94.50
73576;DHT22;61859;49.204;8.140;2022-12-29T13:17:32;13.20;87.60
73576;DHT22;61859;49.204;8.140;2022-12-29T13:20:18;12.90;88.20
73576;DHT22;61859;49.204;8.140;2022-12-29T13:25:37;12.60;90.10
73576;DHT22;61859;49.204;8.140;2022-12-29T13:28:20;12.40;90.50
73576;DHT22;61859;49.204;8.140;2022-12-29T13:31:04;12.40;91.40
73576;DHT22;61859;49.204;8.140;2022-12-29T13:33:47;12.60;91.80
73576;DHT22;61859;49.204;8.140;2022-12-29T13:36:27;12.80;89.90
73576;DHT22;61859;49.204;8.140;2022-12-29T13:39:16;12.80;89.10
73576;DHT22;61859;49.204;8.140;2022-12-29T13:41:47;12.90;89.70
73576;DHT22;61859;49.204;8.140;2022-12-29T13:44:18;13.00;89.70
73576;DHT22;61859;49.204;8.140;2022-12-29T13:46:46;12.80;90.40
73576;DHT22;61859;49.204;8.140;2022-12-29T13:49:20;12.50;91.10
73576;DHT22;61859;49.204;8.140;2022-12-29T13:52:14;12.20;90.90
73576;DHT22;61859;49.204;8.140;2022-12-29T13:55:01;11.90;92.10
73576;DHT22;61859;49.204;8.140;2022-12-29T13:57:58;11.50;93.50
73576;DHT22;61859;49.204;8.140;2022-12-29T14:00:29;11.30;94.20
73576;DHT22;61859;49.204;8.140;2022-12-29T14:03:28;11.00;95.20
73576;DHT22;61859;49.204;8.140;2022-12-29T14:06:27;10.90;95.70
73576;DHT22;61859;49.204;8.140;2022-12-29T14:09:03;10.80;95.90
73576;DHT22;61859;49.204;8.140;2022-12-29T14:11:40;10.60;96.60
73576;DHT22;61859;49.204;8.140;2022-12-29T14:14:22;10.60;96.60
73576;DHT22;61859;49.204;8.140;2022-12-29T14:16:49;10.40;96.80
73576;DHT22;61859;49.204;8.140;2022-12-29T14:21:40;10.20;97.90
73576;DHT22;61859;49.204;8.140;2022-12-29T14:24:26;10.00;98.20
73576;DHT22;61859;49.204;8.140;2022-12-29T14:26:52;9.80;99.00
73576;DHT22;61859;49.204;8.140;2022-12-29T14:31:50;9.60;98.90
73576;DHT22;61859;49.204;8.140;2022-12-29T14:37:01;9.60;99.90
73576;DHT22;61859;49.204;8.140;2022-12-29T14:39:41;9.60;99.30
73576;DHT22;61859;49.204;8.140;2022-12-29T14:44:58;9.70;98.10
73576;DHT22;61859;49.204;8.140;2022-12-29T14:47:35;9.70;97.40
73576;DHT22;61859;49.204;8.140;2022-12-29T14:50:15;9.60;98.50
73576;DHT22;61859;49.204;8.140;2022-12-29T14:52:47;9.60;97.90
73576;DHT22;61859;49.204;8.140;2022-12-29T14:57:58;9.60;98.00
73576;DHT22;61859;49.204;8.140;2022-12-29T15:00:35;9.60;98.20
73576;DHT22;61859;49.204;8.140;2022-12-29T15:06:08;9.50;98.90
73576;DHT22;61859;49.204;8.140;2022-12-29T15:09:06;9.50;99.20
73576;DHT22;61859;49.204;8.140;2022-12-29T15:14:01;9.40;99.90
73576;DHT22;61859;49.204;8.140;2022-12-29T15:16:32;9.40;99.90
73576;DHT22;61859;49.204;8.140;2022-12-29T15:18:59;9.30;99.90
73576;DHT22;61859;49.204;8.140;2022-12-29T15:21:27;9.40;99.90
73576;DHT22;61859;49.204;8.140;2022-12-29T15:23:53;9.30;99.90
73576;DHT22;61859;49.204;8.140;2022-12-29T15:26:19;9.20;99.90
73576;DHT22;61859;49.204;8.140;2022-12-29T15:28:52;9.20;99.90
73576;DHT22;61859;49.204;8.140;2022-12-29T15:31:23;9.10;99.90
73576;DHT22;61859;49.204;8.140;2022-12-29T15:33:51;9.10;99.90
73576;DHT22;61859;49.204;8.140;2022-12-29T15:36:22;8.90;99.90
73576;DHT22;61859;49.204;8.140;2022-12-29T15:38:49;8.90;99.90
73576;DHT22;61859;49.204;8.140;2022-12-29T15:41:42;8.90;99.90
73576;DHT22;61859;49.204;8.140;2022-12-29T15:46:51;8.90;99.90
73576;DHT22;61859;49.204;8.140;2022-12-29T15:49:17;8.80;99.90
73576;DHT22;61859;49.204;8.140;2022-12-29T15:51:43;8.90;99.90
73576;DHT22;61859;49.204;8.140;2022-12-29T15:54:20;8.70;99.90
73576;DHT22;61859;49.204;8.140;2022-12-29T15:56:47;8.80;99.90
73576;DHT22;61859;49.204;8.140;2022-12-29T15:59:24;8.70;99.90
73576;DHT22;61859;49.204;8.140;2022-12-29T16:01:50;8.70;99.90
73576;DHT22;61859;49.204;8.140;2022-12-29T16:04:17;8.70;99.90
73576;DHT22;61859;49.204;8.140;2022-12-29T16:06:59;8.70;99.90
73576;DHT22;61859;49.204;8.140;2022-12-29T16:09:33;8.70;99.90
73576;DHT22;61859;49.204;8.140;2022-12-29T16:12:22;8.60;99.90
73576;DHT22;61859;49.204;8.140;2022-12-29T16:15:07;8.70;99.90
73576;DHT22;61859;49.204;8.140;2022-12-29T16:17:47;8.70;99.90
73576;DHT22;61859;49.204;8.140;2022-12-29T16:20:21;8.80;99.90
73576;DHT22;61859;49.204;8.140;2022-12-29T16:22:50;8.80;99.90
73576;DHT22;61859;49.204;8.140;2022-12-29T16:25:29;8.80;99.90
73576;DHT22;61859;49.204;8.140;2022-12-29T16:27:58;8.80;99.90
73576;DHT22;61859;49.204;8.140;2022-12-29T16:30:27;8.90;99.90
73576;DHT22;61859;49.204;8.140;2022-12-29T16:32:55;8.90;99.90
73576;DHT22;61859;49.204;8.140;2022-12-29T16:35:23;8.90;99.90
73576;DHT22;61859;49.204;8.140;2022-12-29T16:40:37;8.90;99.90
73576;DHT22;61859;49.204;8.140;2022-12-29T16:43:03;9.00;99.90
73576;DHT22;61859;49.204;8.140;2022-12-29T16:48:32;9.10;99.90
73576;DHT22;61859;49.204;8.140;2022-12-29T16:51:12;9.10;99.90
73576;DHT22;61859;49.204;8.140;2022-12-29T16:53:41;9.20;99.90
73576;DHT22;61859;49.204;8.140;2022-12-29T16:56:16;9.20;99.90
73576;DHT22;61859;49.204;8.140;2022-12-29T16:58:47;9.10;99.90
73576;DHT22;61859;49.204;8.140;2022-12-29T17:01:13;9.30;99.90
73576;DHT22;61859;49.204;8.140;2022-12-29T17:03:51;9.30;99.90
73576;DHT22;61859;49.204;8.140;2022-12-29T17:06:19;9.40;99.90
73576;DHT22;61859;49.204;8.140;2022-12-29T17:08:46;9.30;99.90
73576;DHT22;61859;49.204;8.140;2022-12-29T17:11:30;9.30;99.90
73576;DHT22;61859;49.204;8.140;2022-12-29T17:14:43;9.30;99.90
73576;DHT22;61859;49.204;8.140;2022-12-29T17:17:38;9.30;99.90
73576;DHT22;61859;49.204;8.140;2022-12-29T17:22:39;9.20;99.90
73576;DHT22;61859;49.204;8.140;2022-12-29T17:25:05;9.20;99.90
73576;DHT22;61859;49.204;8.140;2022-12-29T17:27:35;9.20;99.90
73576;DHT22;61859;49.204;8.140;2022-12-29T17:30:05;9.20;99.90
73576;DHT22;61859;49.204;8.140;2022-12-29T17:32:34;9.20;99.90
73576;DHT22;61859;49.204;8.140;2022-12-29T17:35:00;9.20;99.90
73576;DHT22;61859;49.204;8.140;2022-12-29T17:37:51;9.10;99.90
73576;DHT22;61859;49.204;8.140;2022-12-29T17:40:23;9.10;99.90
73576;DHT22;61859;49.204;8.140;2022-12-29T17:42:52;9.20;99.90
73576;DHT22;61859;49.204;8.140;2022-12-29T17:45:26;9.10;99.90
73576;DHT22;61859;49.204;8.140;2022-12-29T17:47:52;9.10;99.90